Time;durP1;ratioP1;P1;durP2;ratioP2;P2;SDS_P1;SDS_P2;PMS_P1;PMS_P2;Temp;Humidity;BMP_temperature;BMP_pressure;BME280_temperature;BME280_humidity;BME280_pressure;Samples;Min_cycle;Max_cycle;Signal;HPM_P1;HPM_P2
2022/10/02 00:00:17;;;;;;;9.18;5.85;;;;;;;13.25;86.11;98024.06;4899965;29;20174;-58
2022/10/02 00:03:09;;;;;;;8.60;5.43;;;;;;;13.13;86.22;98019.16;4899946;29;20103;-58
2022/10/02 00:05:37;;;;;;;8.68;5.60;;;;;;;13.04;86.07;98023.53;4908889;29;20060;-58
2022/10/02 00:08:17;;;;;;;7.53;5.25;;;;;;;12.94;86.00;98019.94;4899493;29;20107;-59
2022/10/02 00:10:49;;;;;;;8.95;5.32;;;;;;;12.88;86.08;98025.59;4899629;29;20040;-58
2022/10/02 00:13:19;;;;;;;6.90;5.10;;;;;;;12.80;85.60;98019.06;4899605;29;20098;-58
2022/10/02 00:15:45;;;;;;;;;;;;;;;12.75;85.34;98021.78;4899873;29;20068;-59
2022/10/02 00:18:13;;;;;;;6.38;4.50;;;;;;;12.66;85.84;98020.81;4916607;29;19980;-57
2022/10/02 00:20:53;;;;;;;6.80;5.15;;;;;;;12.58;86.52;98021.44;4899616;29;20040;-60
2022/10/02 00:23:34;;;;;;;8.07;5.03;;;;;;;12.49;86.26;98022.06;4916296;29;20135;-58
2022/10/02 00:26:20;;;;;;;7.78;4.57;;;;;;;12.38;86.03;98019.78;4915990;29;20103;-58
2022/10/02 00:29:02;;;;;;;7.88;4.57;;;;;;;12.33;86.28;98022.53;4915911;29;20056;-59
2022/10/02 00:31:50;;;;;;;8.27;4.15;;;;;;;12.26;86.38;98025.50;4899161;29;20434;-58
2022/10/02 00:34:37;;;;;;;8.48;5.05;;;;;;;12.25;86.16;98023.91;4915987;29;20176;-59
2022/10/02 00:37:32;;;;;;;11.68;5.05;;;;;;;12.13;86.30;98028.84;4915845;29;20430;-60
2022/10/02 00:40:36;;;;;;;7.82;4.70;;;;;;;12.02;86.55;98025.47;4901523;29;20064;-58
2022/10/02 00:43:25;;;;;;;6.25;4.07;;;;;;;12.07;86.78;98030.75;4901269;29;20536;-59
2022/10/02 00:46:19;;;;;;;6.20;4.22;;;;;;;12.06;86.46;98034.47;4898963;29;20055;-59
2022/10/02 00:49:26;;;;;;;7.43;4.40;;;;;;;12.12;86.42;98030.69;4915762;29;20056;-60
2022/10/02 00:51:58;;;;;;;7.95;4.47;;;;;;;12.15;85.78;98029.34;4886267;29;20060;-59
2022/10/02 00:54:42;;;;;;;6.20;4.25;;;;;;;12.12;85.64;98036.00;4915772;29;20048;-58
2022/10/02 00:57:33;;;;;;;6.53;4.68;;;;;;;12.03;85.80;98041.13;4915625;29;20075;-58
2022/10/02 01:00:15;;;;;;;7.05;4.65;;;;;;;11.99;85.89;98037.44;4880132;29;20090;-59
2022/10/02 01:02:48;;;;;;;5.78;4.22;;;;;;;12.07;86.20;98045.88;4915846;29;20067;-58
2022/10/02 01:05:14;;;;;;;7.05;4.32;;;;;;;12.13;85.58;98036.81;4898753;29;20048;-59
2022/10/02 01:07:41;;;;;;;7.20;4.57;;;;;;;12.13;85.42;98039.47;4915698;29;20048;-59
2022/10/02 01:10:08;;;;;;;7.07;4.15;;;;;;;12.18;85.17;98034.09;4898418;29;20083;-60
2022/10/02 01:12:34;;;;;;;5.43;4.13;;;;;;;12.20;84.53;98040.69;4898502;29;20040;-59
2022/10/02 01:15:00;;;;;;;5.18;4.03;;;;;;;12.14;84.08;98033.06;4915549;29;20048;-59
2022/10/02 01:17:29;;;;;;;6.57;4.10;;;;;;;12.09;84.04;98047.19;4915584;29;20055;-58
2022/10/02 01:19:55;;;;;;;4.82;3.53;;;;;;;12.08;84.13;98028.88;4915201;29;20059;-59
2022/10/02 01:22:33;;;;;;;5.72;3.65;;;;;;;12.07;83.60;98038.72;4915462;29;20131;-58
2022/10/02 01:25:03;;;;;;;7.32;3.65;;;;;;;12.04;83.64;98033.97;4898199;29;20131;-59
2022/10/02 01:27:29;;;;;;;4.95;3.58;;;;;;;12.05;83.26;98031.00;4898637;29;20054;-59
2022/10/02 01:30:06;;;;;;;5.35;3.67;;;;;;;11.94;83.63;98037.50;4898211;29;20048;-59
2022/10/02 01:32:33;;;;;;;5.68;3.67;;;;;;;11.94;83.37;98044.66;4899491;29;20135;-59
2022/10/02 01:34:59;;;;;;;6.03;3.80;;;;;;;11.97;83.38;98052.06;4898218;29;20040;-58
2022/10/02 01:37:28;;;;;;;5.80;3.75;;;;;;;11.97;83.12;98042.25;4898124;29;20082;-59
2022/10/02 01:39:57;;;;;;;5.63;4.03;;;;;;;11.97;83.20;98042.25;4918639;29;20055;-59
2022/10/02 01:42:23;;;;;;;7.30;3.72;;;;;;;11.99;83.15;98045.41;4904568;29;20044;-58
2022/10/02 01:44:48;;;;;;;6.65;4.10;;;;;;;12.00;82.93;98048.84;4904385;29;20063;-58
2022/10/02 01:47:18;;;;;;;3.92;3.20;;;;;;;12.00;82.97;98052.31;4904542;29;20040;-58
2022/10/02 01:49:46;;;;;;;6.55;4.00;;;;;;;11.98;82.82;98057.09;4904708;29;20118;-58
2022/10/02 01:52:12;;;;;;;5.70;3.58;;;;;;;12.00;82.93;98057.63;4921461;29;20040;-59
2022/10/02 01:55:22;;;;;;;4.72;3.60;;;;;;;11.92;83.06;98050.25;4921324;29;20052;-59
2022/10/02 01:58:11;;;;;;;;;;;;;;;11.86;83.64;98058.56;4911390;29;20051;-59
2022/10/02 02:00:42;;;;;;;4.93;3.47;;;;;;;11.91;84.39;98059.31;4921242;29;19990;-58
2022/10/02 02:03:22;;;;;;;6.07;3.85;;;;;;;11.82;84.03;98060.91;4921594;29;20139;-58
2022/10/02 02:06:17;;;;;;;6.10;3.85;;;;;;;11.70;84.07;98057.81;4921208;29;20254;-59
2022/10/02 02:08:53;;;;;;;7.20;5.15;;;;;;;11.70;84.58;98049.88;4885695;29;20493;-58
2022/10/02 02:11:20;;;;;;;9.52;5.82;;;;;;;11.71;84.46;98054.13;4888710;29;20062;-58
2022/10/02 02:14:05;;;;;;;7.22;5.65;;;;;;;11.66;84.68;98046.19;4921035;29;20047;-58
2022/10/02 02:16:41;;;;;;;7.80;5.35;;;;;;;11.62;84.74;98059.22;4904087;29;20067;-59
2022/10/02 02:19:25;;;;;;;7.38;4.97;;;;;;;11.55;85.06;98058.72;4888493;29;20076;-58
2022/10/02 02:21:57;;;;;;;6.72;4.30;;;;;;;11.57;84.98;98061.91;4920274;29;20048;-59
2022/10/02 02:24:27;;;;;;;5.60;4.07;;;;;;;11.55;85.46;98061.38;4918569;29;20043;-59
2022/10/02 02:26:56;;;;;;;6.28;3.90;;;;;;;11.56;84.63;98066.44;4912212;29;20040;-58
2022/10/02 02:29:24;;;;;;;5.53;4.00;;;;;;;11.55;84.15;98070.13;4895915;29;20048;-58
2022/10/02 02:31:55;;;;;;;7.28;4.07;;;;;;;11.63;84.52;98074.06;4906681;29;20063;-58
2022/10/02 02:34:31;;;;;;;5.63;4.25;;;;;;;11.62;84.23;98067.19;4896320;29;20048;-58
2022/10/02 02:37:03;;;;;;;6.28;4.95;;;;;;;11.62;84.46;98069.84;4918573;29;20080;-59
2022/10/02 02:39:56;;;;;;;6.40;4.45;;;;;;;11.64;84.30;98072.19;4911381;29;20051;-58
2022/10/02 02:42:24;;;;;;;5.97;4.25;;;;;;;11.62;84.14;98075.16;4885155;29;20465;-57
2022/10/02 02:44:55;;;;;;;7.15;4.75;;;;;;;11.58;83.52;98074.09;4909132;29;20059;-58
2022/10/02 02:47:28;;;;;;;6.47;4.75;;;;;;;11.56;84.00;98063.78;4887846;29;20032;-57
2022/10/02 02:49:58;;;;;;;7.38;4.53;;;;;;;11.55;84.14;98072.00;4903862;29;20091;-59
2022/10/02 02:52:35;;;;;;;9.90;5.25;;;;;;;11.57;83.93;98075.19;4899710;29;20059;-59
2022/10/02 02:55:18;;;;;;;7.85;4.93;;;;;;;11.54;84.34;98073.06;4900876;29;20056;-58
2022/10/02 02:58:09;;;;;;;6.22;4.50;;;;;;;11.55;83.79;98061.38;4901062;29;20525;-58
2022/10/02 03:00:35;;;;;;;8.25;4.53;;;;;;;11.56;83.61;98069.09;4901029;29;20425;-59
2022/10/02 03:03:00;;;;;;;6.32;4.38;;;;;;;11.53;83.46;98074.13;4901036;29;20123;-58
2022/10/02 03:05:28;;;;;;;5.18;3.75;;;;;;;11.52;83.71;98073.34;4901098;29;20048;-61
2022/10/02 03:08:02;;;;;;;5.15;3.78;;;;;;;11.54;83.62;98078.38;4918043;29;20490;-56
2022/10/02 03:10:31;;;;;;;4.63;3.10;;;;;;;11.50;82.65;98075.50;4871021;29;20048;-59
2022/10/02 03:13:29;;;;;;;4.18;2.80;;;;;;;11.46;82.32;98084.25;4917947;29;20044;-59
2022/10/02 03:16:06;;;;;;;3.30;2.85;;;;;;;11.40;82.98;98077.41;4893909;29;20059;-58
2022/10/02 03:18:54;;;;;;;2.90;2.47;;;;;;;11.34;83.09;98072.13;4900742;29;20152;-58
2022/10/02 03:21:34;;;;;;;3.55;2.22;;;;;;;11.33;82.22;98067.88;4917472;29;20044;-58
2022/10/02 03:24:07;;;;;;;2.00;1.63;;;;;;;11.22;81.79;98068.22;4900788;29;20059;-59
2022/10/02 03:26:40;;;;;;;3.80;1.55;;;;;;;11.13;82.47;98071.44;4917645;29;20048;-58
2022/10/02 03:29:12;;;;;;;4.57;1.50;;;;;;;11.06;81.86;98075.44;4900718;29;20122;-58
2022/10/02 03:31:39;;;;;;;2.17;1.45;;;;;;;11.06;82.86;98075.44;4884699;29;20044;-59
2022/10/02 03:34:05;;;;;;;3.75;1.73;;;;;;;11.06;82.75;98080.75;4900521;29;20066;-58
2022/10/02 03:36:30;;;;;;;1.77;1.45;;;;;;;11.04;81.85;98073.06;4917091;29;20509;-59
2022/10/02 03:38:59;;;;;;;1.55;1.30;;;;;;;11.00;81.62;98080.00;4917166;29;20063;-58
2022/10/02 03:41:25;;;;;;;1.75;1.45;;;;;;;11.01;81.96;98084.22;4900166;29;20040;-59
2022/10/02 03:43:50;;;;;;;1.30;1.17;;;;;;;11.00;81.40;98087.94;4917003;29;20048;-59
2022/10/02 03:46:16;;;;;;;1.42;1.20;;;;;;;11.01;81.48;98086.09;4917016;29;20107;-57
2022/10/02 03:48:41;;;;;;;4.18;1.20;;;;;;;10.97;80.75;98088.50;4917057;29;20082;-57
2022/10/02 03:51:07;;;;;;;1.10;1.00;;;;;;;10.98;80.92;98082.13;4917041;29;20509;-59
2022/10/02 03:53:35;;;;;;;1.65;0.80;;;;;;;11.01;80.86;98076.28;4900036;29;20417;-60
2022/10/02 03:56:07;;;;;;;1.75;0.90;;;;;;;11.04;80.04;98080.25;4900508;29;20096;-58
2022/10/02 03:58:34;;;;;;;1.40;1.13;;;;;;;11.02;80.83;98083.16;4900231;29;20048;-58
2022/10/02 04:01:24;;;;;;;4.22;1.17;;;;;;;10.95;79.71;98080.00;4899556;29;20047;-58
2022/10/02 04:03:53;;;;;;;1.13;0.80;;;;;;;10.97;79.34;98077.06;4899687;29;20047;-58
2022/10/02 04:06:22;;;;;;;2.25;1.02;;;;;;;10.90;78.78;98080.81;4899943;29;20044;-59
2022/10/02 04:09:02;;;;;;;1.02;0.90;;;;;;;10.90;79.30;98080.03;4899605;29;20044;-58
2022/10/02 04:11:38;;;;;;;0.87;0.83;;;;;;;10.95;79.60;98081.88;4916427;29;20040;-58
2022/10/02 04:14:42;;;;;;;1.30;0.80;;;;;;;10.96;79.54;98080.81;4899426;29;20167;-58
2022/10/02 04:17:19;;;;;;;0.80;0.80;;;;;;;10.93;79.38;98087.44;4858592;29;20067;-58
2022/10/02 04:19:52;;;;;;;0.68;0.60;;;;;;;10.95;79.42;98081.88;4899752;29;20040;-57
2022/10/02 04:22:30;;;;;;;1.92;1.10;;;;;;;10.95;78.32;98090.63;4916721;29;20073;-59
2022/10/02 04:25:18;;;;;;;0.70;0.70;;;;;;;10.91;77.70;98090.38;4916483;29;20051;-58
2022/10/02 04:27:44;;;;;;;0.60;0.60;;;;;;;10.93;77.71;98089.28;4916038;29;20059;-58
2022/10/02 04:30:18;;;;;;;1.33;0.60;;;;;;;10.91;77.75;98090.38;4916106;29;20510;-57
2022/10/02 04:32:44;;;;;;;0.70;0.70;;;;;;;10.88;77.33;98098.03;4916546;29;20191;-58
2022/10/02 04:35:14;;;;;;;1.13;0.90;;;;;;;10.95;77.38;98095.91;4916395;29;20134;-60
2022/10/02 04:37:45;;;;;;;1.00;0.80;;;;;;;10.91;77.15;98102.81;4883389;29;20425;-59
2022/10/02 04:40:39;;;;;;;0.80;0.80;;;;;;;10.94;77.41;98106.78;4916269;29;20553;-60
2022/10/02 04:43:44;;;;;;;0.80;0.80;;;;;;;10.85;77.37;98102.06;4916366;29;20048;-57
2022/10/02 04:46:28;;;;;;;0.70;0.70;;;;;;;10.76;77.29;98102.88;4915186;29;20111;-60
2022/10/02 04:49:19;;;;;;;0.70;0.70;;;;;;;10.72;78.05;98107.13;4916130;29;20052;-59
2022/10/02 04:52:08;;;;;;;0.93;0.90;;;;;;;10.72;78.25;98112.44;4898890;29;20056;-59
2022/10/02 04:54:45;;;;;;;1.25;0.90;;;;;;;10.67;77.67;98116.66;4915538;29;20072;-59
2022/10/02 04:57:23;;;;;;;3.33;0.85;;;;;;;10.73;76.48;98112.13;4898732;29;20092;-59
2022/10/02 04:59:59;;;;;;;0.80;0.80;;;;;;;10.68;77.03;98114.81;4915945;29;20052;-60
2022/10/02 05:02:59;;;;;;;0.70;0.70;;;;;;;10.65;77.54;98113.50;4915882;29;20425;-59
2022/10/02 05:05:33;;;;;;;0.60;0.60;;;;;;;10.67;76.60;98106.06;4915818;29;20521;-60
2022/10/02 05:08:32;;;;;;;1.20;0.88;;;;;;;10.69;77.66;98100.50;4915952;29;20206;-57
2022/10/02 05:11:01;;;;;;;0.82;0.60;;;;;;;10.76;76.42;98106.31;4898480;29;20122;-59
2022/10/02 05:14:04;;;;;;;0.73;0.73;;;;;;;10.77;75.85;98104.47;4898386;29;20044;-59
2022/10/02 05:16:50;;;;;;;1.10;0.68;;;;;;;10.82;76.26;98091.97;4898016;29;20047;-60
2022/10/02 05:19:22;;;;;;;0.70;0.70;;;;;;;10.89;75.88;98083.75;4898743;29;20415;-59
2022/10/02 05:22:25;;;;;;;1.20;0.90;;;;;;;10.76;76.08;98089.63;4915347;29;20048;-59
2022/10/02 05:24:53;;;;;;;4.85;0.80;;;;;;;10.79;76.82;98100.47;4898578;29;20481;-58
2022/10/02 05:27:26;;;;;;;0.80;0.80;;;;;;;10.88;76.31;98103.34;4915614;29;20044;-61
2022/10/02 05:29:58;;;;;;;0.80;0.80;;;;;;;10.95;76.72;98106.53;4898230;29;20160;-58
2022/10/02 05:32:42;;;;;;;3.25;1.08;;;;;;;10.98;76.94;98097.25;4898393;29;20478;-58
2022/10/02 05:35:30;;;;;;;0.70;0.70;;;;;;;11.11;76.34;98104.59;4883131;29;20051;-58
2022/10/02 05:38:18;;;;;;;0.73;0.70;;;;;;;11.23;75.80;98110.38;4915141;29;20528;-58
2022/10/02 05:40:56;;;;;;;3.50;0.75;;;;;;;11.21;75.17;98098.47;4915502;29;20056;-59
2022/10/02 05:43:47;;;;;;;0.70;0.70;;;;;;;11.29;74.90;98100.53;4915091;29;20056;-58
2022/10/02 05:46:25;;;;;;;0.70;0.70;;;;;;;11.31;74.46;98101.06;4898532;29;20072;-59
2022/10/02 05:48:58;;;;;;;0.70;0.70;;;;;;;11.28;73.83;98104.25;4898486;29;20074;-60
2022/10/02 05:51:46;;;;;;;1.05;0.80;;;;;;;11.25;73.29;98099.50;4882695;29;20548;-59
2022/10/02 05:54:26;;;;;;;1.55;0.70;;;;;;;11.35;73.41;98104.75;4915378;29;20052;-60
2022/10/02 05:57:12;;;;;;;3.30;0.70;;;;;;;11.28;73.04;98104.25;4915129;29;20048;-60
2022/10/02 05:59:41;;;;;;;1.15;0.77;;;;;;;11.22;73.91;98108.78;4915352;29;20050;-59
2022/10/02 06:02:23;;;;;;;1.85;0.90;;;;;;;11.26;74.05;98106.38;4915223;29;20054;-59
2022/10/02 06:04:56;;;;;;;0.80;0.80;;;;;;;11.41;73.33;98111.59;4898254;29;20059;-60
2022/10/02 06:07:22;;;;;;;0.63;0.63;;;;;;;11.53;73.07;98108.63;4898325;29;20073;-59
2022/10/02 06:10:02;;;;;;;0.73;0.73;;;;;;;11.61;72.31;98113.34;4898157;29;20148;-59
2022/10/02 06:12:41;;;;;;;0.60;0.60;;;;;;;11.65;72.56;98113.59;4898396;29;20426;-59
2022/10/02 06:15:16;;;;;;;2.03;0.70;;;;;;;11.74;72.72;98114.63;4882459;29;20173;-60
2022/10/02 06:18:07;;;;;;;1.20;0.90;;;;;;;11.70;72.19;98114.34;4898141;29;20076;-59
2022/10/02 06:20:44;;;;;;;;;;;;;;;11.78;72.17;98115.66;4914866;29;20131;-60
2022/10/02 06:23:34;;;;;;;3.08;0.80;;;;;;;11.85;72.19;98110.00;4898063;29;19942;-60
2022/10/02 06:26:08;;;;;;;0.90;0.90;;;;;;;11.81;71.29;98102.59;4916407;29;20172;-58
2022/10/02 06:28:35;;;;;;;0.73;0.73;;;;;;;11.95;70.72;98123.25;4870685;29;20534;-58
2022/10/02 06:31:05;;;;;;;1.00;1.00;;;;;;;11.97;70.57;98124.56;4901281;29;20490;-60
2022/10/02 06:33:32;;;;;;;0.80;0.80;;;;;;;12.00;71.04;98115.25;4918594;29;20052;-60
2022/10/02 06:36:16;;;;;;;1.10;0.90;;;;;;;12.07;70.49;98115.72;4917906;29;20044;-59
2022/10/02 06:39:00;;;;;;;0.80;0.80;;;;;;;12.12;70.00;98125.50;4901309;29;20506;-60
2022/10/02 06:42:01;;;;;;;1.42;0.65;;;;;;;12.24;70.00;98123.31;4901483;29;20036;-60
2022/10/02 06:44:35;;;;;;;0.75;0.70;;;;;;;12.18;69.74;98121.75;4901456;29;20099;-59
2022/10/02 06:47:08;;;;;;;1.08;0.80;;;;;;;12.21;69.38;98124.66;4901068;29;20040;-57
2022/10/02 06:50:07;;;;;;;0.70;0.70;;;;;;;12.19;69.83;98128.66;4918278;29;20055;-60
2022/10/02 06:52:43;;;;;;;0.68;0.68;;;;;;;12.03;69.84;98101.44;4901232;29;20039;-59
2022/10/02 06:55:40;;;;;;;1.00;0.82;;;;;;;12.30;69.79;98130.16;4901278;29;20058;-59
2022/10/02 06:58:33;;;;;;;2.25;0.85;;;;;;;12.35;68.44;98119.47;4901197;29;20048;-59
2022/10/02 07:01:11;;;;;;;1.27;0.80;;;;;;;12.47;68.74;98119.91;4900853;29;20088;-60
2022/10/02 07:03:58;;;;;;;1.42;0.95;;;;;;;12.54;67.45;98118.78;4900942;29;20056;-58
2022/10/02 07:06:52;;;;;;;0.85;0.75;;;;;;;12.58;67.39;98130.44;4917776;29;20478;-58
2022/10/02 07:09:26;;;;;;;1.63;1.00;;;;;;;12.60;68.53;98134.41;4900811;29;20076;-60
2022/10/02 07:12:04;;;;;;;4.53;0.75;;;;;;;12.73;67.88;98125.78;4917836;29;20040;-59
2022/10/02 07:14:54;;;;;;;1.15;0.82;;;;;;;12.88;67.70;98119.50;4917770;29;20091;-60
2022/10/02 07:17:38;;;;;;;1.50;0.77;;;;;;;13.09;66.33;98124.59;4917686;29;20055;-60
2022/10/02 07:20:33;;;;;;;0.88;0.75;;;;;;;13.21;65.46;98129.47;4900535;29;20517;-60
2022/10/02 07:23:11;;;;;;;0.70;0.70;;;;;;;13.09;66.22;98132.56;4917704;29;20139;-59
2022/10/02 07:25:57;;;;;;;0.60;0.60;;;;;;;13.16;65.39;98127.69;4900549;29;20060;-61
2022/10/02 07:28:38;;;;;;;1.75;0.85;;;;;;;13.18;66.55;98133.50;4903507;29;20058;-59
2022/10/02 07:31:40;;;;;;;1.02;0.90;;;;;;;13.05;66.00;98136.84;4917412;29;20048;-60
2022/10/02 07:34:16;;;;;;;0.80;0.80;;;;;;;12.94;66.34;98125.53;4901381;29;20048;-59
2022/10/02 07:37:17;;;;;;;1.48;0.65;;;;;;;12.96;66.73;98132.16;4899742;29;20067;-58
2022/10/02 07:40:01;;;;;;;0.80;0.80;;;;;;;13.05;66.41;98139.50;4887965;29;20095;-57
2022/10/02 07:42:37;;;;;;;0.80;0.80;;;;;;;13.08;65.97;98142.38;4899863;29;20100;-59
2022/10/02 07:45:20;;;;;;;1.27;0.95;;;;;;;13.05;67.40;98142.16;4916692;29;20532;-60
2022/10/02 07:48:07;;;;;;;1.20;0.90;;;;;;;13.03;67.02;98141.66;4917081;29;20138;-59
2022/10/02 07:50:50;;;;;;;2.10;0.90;;;;;;;13.09;65.92;98140.53;4884215;29;20506;-60
2022/10/02 07:53:37;;;;;;;2.05;1.10;;;;;;;13.22;66.49;98144.38;4899552;29;20111;-60
2022/10/02 07:56:05;;;;;;;0.80;0.80;;;;;;;13.30;66.40;98141.91;4916875;29;20122;-60
2022/10/02 07:58:38;;;;;;;1.10;1.00;;;;;;;13.47;65.90;98136.09;4899732;29;20583;-60
2022/10/02 08:01:10;;;;;;;2.60;1.20;;;;;;;13.55;65.63;98142.66;4916252;29;20642;-58
2022/10/02 08:03:54;;;;;;;1.02;0.90;;;;;;;13.47;65.61;98130.78;4899473;29;20556;-58
2022/10/02 08:06:20;;;;;;;0.80;0.80;;;;;;;13.44;65.11;98139.31;4898283;29;20059;-59
2022/10/02 08:08:55;;;;;;;1.05;0.98;;;;;;;13.46;64.55;98144.38;4899195;29;20041;-59
2022/10/02 08:11:29;;;;;;;1.00;0.90;;;;;;;13.40;65.28;98149.75;4899716;29;20070;-58
2022/10/02 08:13:59;;;;;;;1.00;0.90;;;;;;;13.37;65.57;98142.34;4900310;29;20040;-58
2022/10/02 08:16:31;;;;;;;1.95;0.98;;;;;;;13.40;65.65;98149.75;4916258;29;20048;-58
2022/10/02 08:19:10;;;;;;;0.80;0.80;;;;;;;13.35;64.89;98154.34;4899885;29;20059;-57
2022/10/02 08:21:41;;;;;;;0.88;0.88;;;;;;;13.33;65.55;98164.50;4883810;29;20082;-58
2022/10/02 08:24:17;;;;;;;3.25;1.00;;;;;;;13.13;66.30;98154.84;4915417;29;20527;-59
2022/10/02 08:26:51;;;;;;;1.33;1.23;;;;;;;13.04;66.65;98154.69;4899161;29;20087;-60
2022/10/02 08:29:27;;;;;;;3.30;0.90;;;;;;;13.16;67.38;98159.59;4899025;29;20494;-60
2022/10/02 08:31:53;;;;;;;2.88;1.10;;;;;;;13.24;67.49;98160.84;4915989;29;20068;-60
2022/10/02 08:34:22;;;;;;;1.35;1.10;;;;;;;13.26;66.85;98156.84;4899088;29;20513;-60
2022/10/02 08:36:58;;;;;;;1.63;1.00;;;;;;;13.30;66.21;98152.56;4915157;29;20060;-60
2022/10/02 08:39:57;;;;;;;2.10;1.20;;;;;;;13.40;67.05;98165.72;4915404;29;20052;-60
2022/10/02 08:42:51;;;;;;;1.00;1.00;;;;;;;13.51;65.97;98162.94;4915242;29;20055;-59
2022/10/02 08:45:39;;;;;;;0.93;0.90;;;;;;;13.44;65.80;98162.47;4915843;29;20058;-60
2022/10/02 08:48:21;;;;;;;1.27;1.00;;;;;;;13.46;66.23;98169.09;4898872;29;20055;-57
2022/10/02 08:51:20;;;;;;;1.20;0.95;;;;;;;13.30;65.32;98170.38;4915466;29;20587;-60
2022/10/02 08:54:20;;;;;;;1.80;1.13;;;;;;;13.30;66.27;98168.50;4916048;29;20052;-58
2022/10/02 08:57:04;;;;;;;1.05;0.93;;;;;;;13.37;66.05;98163.63;4915442;29;20052;-60
2022/10/02 08:59:36;;;;;;;1.20;1.10;;;;;;;13.42;65.59;98172.66;4898866;29;20075;-61
2022/10/02 09:02:18;;;;;;;1.17;1.08;;;;;;;13.42;66.05;98169.97;4898809;29;20052;-60
2022/10/02 09:05:01;;;;;;;1.15;1.00;;;;;;;13.55;65.82;98166.59;4915458;29;20060;-60
2022/10/02 09:07:49;;;;;;;1.30;1.20;;;;;;;13.60;64.54;98164.66;4915804;29;20047;-58
2022/10/02 09:10:48;;;;;;;2.10;1.20;;;;;;;13.58;64.28;98179.34;4915695;29;20056;-59
2022/10/02 09:13:32;;;;;;;1.37;1.10;;;;;;;13.49;64.37;98176.53;4915872;29;20525;-59
2022/10/02 09:16:14;;;;;;;0.95;0.90;;;;;;;13.42;64.73;98177.97;4898557;29;20050;-59
2022/10/02 09:19:02;;;;;;;0.80;0.80;;;;;;;13.44;64.71;98184.56;4898694;29;20608;-58
2022/10/02 09:22:10;;;;;;;2.03;1.23;;;;;;;13.41;65.06;98177.16;4869941;29;20043;-59
2022/10/02 09:24:55;;;;;;;1.10;1.00;;;;;;;13.65;65.22;98187.78;4902920;29;20051;-58
2022/10/02 09:27:39;;;;;;;3.03;1.38;;;;;;;13.56;65.15;98184.97;4910508;29;20044;-60
2022/10/02 09:30:33;;;;;;;1.48;1.23;;;;;;;13.54;64.67;98181.78;4914098;29;20044;-59
2022/10/02 09:33:03;;;;;;;1.60;1.20;;;;;;;13.46;65.20;98184.28;4914119;29;20051;-59
2022/10/02 09:36:00;;;;;;;1.65;1.30;;;;;;;13.57;66.01;98183.09;4914171;29;20537;-59
2022/10/02 09:39:12;;;;;;;1.30;1.20;;;;;;;13.70;64.87;98185.03;4898396;29;20072;-58
2022/10/02 09:42:07;;;;;;;1.48;1.10;;;;;;;13.71;64.30;98191.97;4898399;29;20048;-59
2022/10/02 09:45:18;;;;;;;1.38;1.27;;;;;;;13.86;63.95;98188.31;4899021;29;20059;-58
2022/10/02 09:48:11;;;;;;;2.25;1.38;;;;;;;13.91;63.58;98180.22;4876341;29;20487;-59
2022/10/02 09:50:55;;;;;;;1.70;1.25;;;;;;;13.87;63.75;98176.56;4876605;29;20041;-58
2022/10/02 09:53:55;;;;;;;1.38;1.20;;;;;;;13.86;63.31;98181.09;4910198;29;20589;-58
2022/10/02 09:56:39;;;;;;;;;;;;;;;13.87;63.48;98179.22;4900961;29;20044;-58
2022/10/02 09:59:11;;;;;;;1.73;1.13;;;;;;;13.75;63.87;98176.19;4915736;29;20011;-58
2022/10/02 10:01:40;;;;;;;1.38;1.17;;;;;;;13.76;63.78;98180.44;4917683;29;20123;-60
2022/10/02 10:04:11;;;;;;;1.45;1.10;;;;;;;13.62;63.06;98183.03;4918681;29;20048;-59
2022/10/02 10:06:55;;;;;;;2.92;1.30;;;;;;;13.57;64.04;98180.44;4918633;29;20436;-60
2022/10/02 10:09:33;;;;;;;1.52;1.20;;;;;;;13.60;64.00;98182.53;4902237;29;20474;-55
2022/10/02 10:12:23;;;;;;;2.25;2.00;;;;;;;13.67;64.35;98185.59;4917494;29;20040;-59
2022/10/02 10:15:14;;;;;;;1.40;1.20;;;;;;;13.67;63.37;98174.16;4918921;29;20131;-58
2022/10/02 10:18:03;;;;;;;3.50;1.33;;;;;;;13.70;64.21;98173.59;4918368;29;20048;-59
2022/10/02 10:20:53;;;;;;;2.33;1.20;;;;;;;13.62;63.95;98167.06;4918412;29;20110;-62
2022/10/02 10:23:30;;;;;;;2.90;1.25;;;;;;;13.68;64.00;98175.75;4905301;29;20151;-61
2022/10/02 10:26:15;;;;;;;1.40;1.30;;;;;;;13.53;63.70;98171.41;4885668;29;20180;-60
2022/10/02 10:29:11;;;;;;;2.85;1.30;;;;;;;13.53;64.42;98180.22;4901239;29;20052;-60
2022/10/02 10:31:52;;;;;;;1.40;1.25;;;;;;;13.57;64.80;98177.78;4901034;29;20055;-62
2022/10/02 10:34:20;;;;;;;;;;;;;;;13.67;63.52;98180.28;4901527;29;20123;-59
2022/10/02 10:39:59;;;;;;;5.35;1.70;;;;;;;13.80;62.88;98179.59;4869248;29;20096;-59
2022/10/02 10:43:03;;;;;;;1.98;1.50;;;;;;;13.92;62.91;98176.50;4882183;29;20487;-59
2022/10/02 10:45:45;;;;;;;3.63;1.30;;;;;;;14.02;61.43;98178.22;4877754;29;20067;-58
2022/10/02 10:49:02;;;;;;;4.47;1.38;;;;;;;13.99;61.56;98179.56;4862075;29;20511;-57
2022/10/02 10:51:36;;;;;;;2.35;1.30;;;;;;;13.83;62.29;98191.53;4897069;29;20201;-61
2022/10/02 10:57:03;;;;;;;3.28;1.55;;;;;;;13.81;62.98;98183.03;4892365;29;20048;-60
2022/10/02 11:00:01;;;;;;;3.30;1.40;;;;;;;13.71;62.93;98180.53;4897218;29;20049;-60
2022/10/02 11:02:53;;;;;;;4.25;1.40;;;;;;;13.63;62.82;98182.72;4893616;29;20075;-57
2022/10/02 11:06:02;;;;;;;3.55;2.63;;;;;;;13.57;62.54;98194.53;4880457;29;20100;-57
2022/10/02 11:09:06;;;;;;;2.47;1.98;;;;;;;13.59;62.48;98200.38;4880452;29;20146;-60
2022/10/02 11:11:56;;;;;;;1.30;1.20;;;;;;;13.47;62.65;98165.38;4894276;29;20062;-58
2022/10/02 11:14:28;;;;;;;;;;;;;;;13.71;62.72;98186.63;4898449;29;20045;-63
2022/10/02 11:17:09;;;;;;;4.53;1.48;;;;;;;13.67;63.25;98188.28;4898008;29;19923;-61
2022/10/02 11:20:26;;;;;;;3.10;1.20;;;;;;;13.69;62.02;98193.31;4893102;29;20052;-60
2022/10/02 11:23:16;;;;;;;3.97;1.55;;;;;;;13.70;61.80;98182.38;4857745;29;20571;-59
2022/10/02 11:26:00;;;;;;;3.38;1.77;;;;;;;13.73;62.78;98181.78;4898455;29;20055;-59
2022/10/02 11:28:39;;;;;;;1.67;1.40;;;;;;;13.76;61.99;98177.78;4897467;29;20059;-60
2022/10/02 11:31:38;;;;;;;2.80;1.50;;;;;;;13.77;61.72;98176.72;4897373;29;20052;-59
2022/10/02 11:34:39;;;;;;;3.10;1.45;;;;;;;13.83;61.86;98184.34;4897357;29;20053;-59
2022/10/02 11:37:23;;;;;;;1.63;1.50;;;;;;;13.92;61.90;98173.81;4891195;29;20068;-59
2022/10/02 11:39:58;;;;;;;2.78;1.55;;;;;;;13.99;61.78;98170.78;4895909;29;20053;-59
2022/10/02 11:42:57;;;;;;;1.30;1.20;;;;;;;14.02;61.44;98168.34;4897326;29;20049;-59
2022/10/02 11:45:54;;;;;;;2.03;1.63;;;;;;;14.01;61.13;98164.09;4895620;29;20134;-58
2022/10/02 11:48:47;;;;;;;2.03;1.30;;;;;;;14.09;61.26;98168.00;4880739;29;20053;-60
2022/10/02 11:51:22;;;;;;;2.67;1.98;;;;;;;14.19;61.07;98159.81;4897440;29;20052;-59
2022/10/02 11:54:00;;;;;;;2.25;1.40;;;;;;;14.29;61.07;98159.69;4895971;29;20131;-60
2022/10/02 11:56:44;;;;;;;2.17;1.55;;;;;;;14.37;60.47;98160.09;4911757;29;20067;-61
2022/10/02 11:59:32;;;;;;;1.33;1.20;;;;;;;14.27;60.88;98161.84;4914870;29;20176;-60
2022/10/02 12:02:10;;;;;;;1.65;1.30;;;;;;;14.32;59.93;98153.75;4915841;29;20104;-62
2022/10/02 12:05:09;;;;;;;1.88;1.30;;;;;;;14.27;59.35;98161.06;4891954;29;20517;-59
2022/10/02 12:08:00;;;;;;;2.20;1.20;;;;;;;14.26;58.87;98159.44;4897809;29;20139;-59
2022/10/02 12:10:38;;;;;;;3.75;3.00;;;;;;;14.15;59.64;98164.16;4914861;29;20048;-61
2022/10/02 12:13:23;;;;;;;1.45;1.35;;;;;;;14.13;59.53;98153.00;4907893;29;20068;-60
2022/10/02 12:16:42;;;;;;;2.08;1.50;;;;;;;14.15;59.39;98156.16;4897829;29;20414;-61
2022/10/02 12:19:35;;;;;;;2.17;1.30;;;;;;;14.19;60.54;98151.84;4879320;29;20601;-59
2022/10/02 12:28:55;;;;;;;2.85;1.55;;;;;;;14.17;59.49;98153.19;4882685;29;20077;-55
2022/10/02 12:31:32;;;;;;;2.35;1.55;;;;;;;14.18;59.26;98149.47;4883896;29;20079;-57
2022/10/02 12:34:24;;;;;;;3.72;1.40;;;;;;;14.10;59.33;98150.91;4899721;29;20091;-59
2022/10/02 12:37:21;;;;;;;1.90;1.42;;;;;;;13.91;58.98;98152.78;4898723;29;20058;-58
2022/10/02 12:39:55;;;;;;;2.88;1.42;;;;;;;13.83;59.56;98141.72;4916358;29;20143;-60
2022/10/02 12:43:03;;;;;;;1.77;1.50;;;;;;;13.92;59.33;98136.53;4916171;29;20046;-57
2022/10/02 12:45:45;;;;;;;2.85;2.00;;;;;;;14.02;59.20;98138.25;4905959;29;20545;-57
2022/10/02 12:48:22;;;;;;;1.48;1.35;;;;;;;14.05;58.63;98137.66;4899233;29;20043;-60
2022/10/02 12:51:41;;;;;;;1.77;1.50;;;;;;;14.06;59.28;98133.94;4898852;29;20048;-59